createdAt,value
2022-08-11T00:11:59.251Z,24.1
2022-08-11T00:40:58.450Z,24
2022-08-11T01:10:25.910Z,23.9
2022-08-11T01:39:49.601Z,23.6
2022-08-11T02:09:10.681Z,23
2022-08-11T02:38:08.509Z,21.7
2022-08-11T03:07:31.376Z,20.5
2022-08-11T03:37:15.845Z,19.3
2022-08-11T04:05:39.208Z,18.4
2022-08-11T04:35:03.574Z,17.9
2022-08-11T05:04:29.090Z,17.6
2022-08-11T05:33:50.656Z,17.6
2022-08-11T06:03:21.688Z,18.3
2022-08-11T06:32:50.212Z,19.3
2022-08-11T07:02:31.488Z,20.6
2022-08-11T07:31:21.591Z,22.2
2022-08-11T08:01:02.996Z,24.2
2022-08-11T08:29:59.946Z,26.1
2022-08-11T08:59:47.842Z,27.7
2022-08-11T09:28:33.539Z,28.5
2022-08-11T09:57:45.532Z,29.9
2022-08-11T10:27:17.425Z,30.8
2022-08-11T10:56:41.056Z,32.1
2022-08-11T11:26:00.543Z,32.4
2022-08-11T11:55:36.284Z,36.2
2022-08-11T12:25:11.494Z,37.2
2022-08-11T12:54:33.077Z,33
2022-08-11T13:24:03.845Z,32.2
2022-08-11T13:52:56.857Z,31.7
2022-08-11T14:22:24.698Z,34.8
2022-08-11T14:52:01.696Z,42.1
2022-08-11T15:21:36.916Z,38.6
2022-08-11T15:50:54.699Z,35.7
2022-08-11T16:20:14.956Z,33.9
2022-08-11T16:49:39.900Z,35.1
2022-08-11T17:20:38.909Z,35.5
2022-08-11T17:48:08.594Z,32.1
2022-08-11T18:17:25.382Z,30.2
2022-08-11T18:46:41.182Z,29
2022-08-11T19:15:55.720Z,27.9
2022-08-11T19:45:20.228Z,27
2022-08-11T20:14:48.323Z,26.2
2022-08-11T20:44:12.206Z,25.4
2022-08-11T21:13:39.431Z,24.4
2022-08-11T21:42:51.499Z,23.5
2022-08-11T22:12:30.324Z,22.8
2022-08-11T22:41:06.527Z,22
2022-08-11T23:10:32.736Z,21.2
2022-08-11T23:39:55.503Z,20.6
